Time;durP1;ratioP1;P1;durP2;ratioP2;P2;SDS_P1;SDS_P2;PMS_P1;PMS_P2;Temp;Humidity;BMP_temperature;BMP_pressure;BME280_temperature;BME280_humidity;BME280_pressure;Samples;Min_cycle;Max_cycle;Signal;HPM_P1;HPM_P2
2021/08/22 00:00:51;;;;;;;0.20;0.20;;;;;;;20.79;52.40;98594.84;113668;1213;137722;-85
2021/08/22 00:03:17;;;;;;;0.10;0.10;;;;;;;20.79;52.44;98596.02;113647;1217;137279;-86
2021/08/22 00:05:43;;;;;;;0.20;0.20;;;;;;;20.79;52.39;98596.63;113642;1214;137699;-86
2021/08/22 00:08:10;;;;;;;0.20;0.20;;;;;;;20.78;52.25;98597.80;113648;1217;137500;-85
2021/08/22 00:10:37;;;;;;;0.20;0.20;;;;;;;20.79;52.18;98597.73;113718;1220;22445;-85
2021/08/22 00:13:03;;;;;;;0.20;0.20;;;;;;;20.79;51.88;98592.80;113643;1217;137326;-86
2021/08/22 00:15:28;;;;;;;0.10;0.10;;;;;;;20.80;51.75;98589.61;113701;1217;137774;-86
2021/08/22 00:17:54;;;;;;;0.20;0.20;;;;;;;20.81;51.56;98592.12;113717;1217;137468;-85
2021/08/22 00:20:21;;;;;;;0.20;0.20;;;;;;;20.82;51.55;98587.98;113645;1219;137702;-85
2021/08/22 00:22:48;;;;;;;0.20;0.20;;;;;;;20.83;51.43;98591.30;113667;1216;137480;-85
2021/08/22 00:25:14;;;;;;;0.10;0.10;;;;;;;20.85;51.13;98590.84;113806;1220;22454;-85
2021/08/22 00:27:40;;;;;;;0.10;0.10;;;;;;;20.87;51.40;98591.02;113710;1217;137392;-85
2021/08/22 00:30:06;;;;;;;0.10;0.10;;;;;;;20.88;51.72;98591.98;113679;1217;137501;-86
2021/08/22 00:32:32;;;;;;;0.10;0.10;;;;;;;20.89;51.86;98590.90;113665;1219;137503;-85
2021/08/22 00:34:57;;;;;;;0.20;0.20;;;;;;;20.91;52.11;98588.17;113588;1217;137664;-86
2021/08/22 00:37:26;;;;;;;0.10;0.10;;;;;;;20.91;52.86;98593.59;113552;1222;22501;-85
2021/08/22 00:39:58;;;;;;;0.20;0.20;;;;;;;20.91;52.55;98588.35;113623;1218;137279;-85
2021/08/22 00:42:30;;;;;;;0.10;0.10;;;;;;;20.90;52.54;98588.72;113642;1218;137426;-85
2021/08/22 00:44:55;;;;;;;0.10;0.10;;;;;;;20.90;52.75;98584.65;113730;1216;137495;-85
2021/08/22 00:47:21;;;;;;;0.10;0.10;;;;;;;20.91;53.09;98583.95;113708;1217;137732;-85
2021/08/22 00:49:47;;;;;;;0.10;0.10;;;;;;;20.90;53.42;98583.79;113620;1217;137878;-85
2021/08/22 00:52:12;;;;;;;0.20;0.20;;;;;;;20.91;53.95;98584.66;113805;1220;22460;-86
2021/08/22 00:54:42;;;;;;;0.20;0.20;;;;;;;20.90;54.10;98581.73;113584;1218;137067;-86
2021/08/22 00:57:10;;;;;;;0.20;0.20;;;;;;;20.89;54.48;98583.54;113624;1218;137468;-85
2021/08/22 00:59:40;;;;;;;0.20;0.20;;;;;;;20.88;53.88;98581.02;113627;1218;137781;-85
2021/08/22 01:02:09;;;;;;;0.20;0.20;;;;;;;20.89;53.53;98578.92;113681;1215;137818;-85
2021/08/22 01:04:47;;;;;;;0.10;0.10;;;;;;;20.89;53.43;98580.95;113722;1223;23177;-86
2021/08/22 01:07:22;;;;;;;0.10;0.10;;;;;;;20.90;53.52;98580.12;113772;1223;22455;-85
2021/08/22 01:09:50;;;;;;;0.20;0.20;;;;;;;20.91;53.99;98578.72;113653;1216;137245;-85
2021/08/22 01:12:28;;;;;;;0.20;0.20;;;;;;;20.91;53.65;98583.88;113635;1218;138187;-85
2021/08/22 01:15:00;;;;;;;0.30;0.30;;;;;;;20.91;52.98;98578.73;113675;1216;137327;-85
2021/08/22 01:17:30;;;;;;;0.10;0.10;;;;;;;20.91;52.69;98577.63;113724;1217;137467;-85
2021/08/22 01:20:14;;;;;;;0.10;0.10;;;;;;;20.92;53.20;98577.17;113635;1217;137469;-86
2021/08/22 01:22:40;;;;;;;0.20;0.20;;;;;;;20.92;52.67;98570.20;113781;1220;22457;-85
2021/08/22 01:25:09;;;;;;;0.20;0.20;;;;;;;20.92;53.01;98572.55;113605;1218;137571;-85
2021/08/22 01:27:38;;;;;;;0.20;0.20;;;;;;;20.91;52.64;98566.90;113496;1218;137848;-85
2021/08/22 01:30:07;;;;;;;0.20;0.20;;;;;;;20.89;51.89;98567.27;113655;1216;137403;-86
2021/08/22 01:32:52;;;;;;;0.10;0.10;;;;;;;20.88;51.67;98570.08;113663;1219;138253;-86
2021/08/22 01:35:20;;;;;;;0.10;0.10;;;;;;;20.87;51.64;98572.88;113668;1216;137813;-86
2021/08/22 01:37:48;;;;;;;0.20;0.20;;;;;;;20.86;51.75;98569.19;113634;1217;137479;-85
2021/08/22 01:40:18;;;;;;;0.20;0.20;;;;;;;20.85;51.78;98569.41;113736;1220;22469;-85
2021/08/22 01:42:46;;;;;;;0.20;0.20;;;;;;;20.83;51.58;98571.04;113659;1217;137344;-86
2021/08/22 01:45:15;;;;;;;0.10;0.10;;;;;;;20.80;51.28;98570.84;113664;1217;137449;-85
2021/08/22 01:47:45;;;;;;;0.20;0.20;;;;;;;20.77;51.04;98573.85;113671;1219;137640;-85
2021/08/22 01:50:12;;;;;;;0.10;0.10;;;;;;;20.76;50.97;98573.45;113725;1217;137504;-85
2021/08/22 01:52:39;;;;;;;0.20;0.20;;;;;;;20.75;51.04;98584.13;113747;1223;22880;-85
2021/08/22 01:55:08;;;;;;;0.20;0.20;;;;;;;20.73;50.91;98589.67;113652;1217;136946;-85
2021/08/22 01:57:38;;;;;;;0.10;0.10;;;;;;;20.71;51.48;98592.55;113698;1217;137437;-85
2021/08/22 02:00:04;;;;;;;0.10;0.10;;;;;;;20.67;51.76;98590.70;113610;1219;137399;-85
2021/08/22 02:02:30;;;;;;;0.20;0.20;;;;;;;20.63;52.01;98586.48;113686;1217;137518;-86
2021/08/22 02:05:00;;;;;;;0.30;0.30;;;;;;;20.60;52.34;98583.02;113652;1217;137530;-86
2021/08/22 02:07:30;;;;;;;0.20;0.20;;;;;;;20.57;52.84;98585.95;113739;1220;22455;-85
2021/08/22 02:10:04;;;;;;;0.20;0.20;;;;;;;20.53;52.78;98588.08;113512;1219;137493;-85
2021/08/22 02:12:30;;;;;;;0.10;0.10;;;;;;;20.49;53.08;98585.59;113722;1217;137520;-86
2021/08/22 02:15:21;;;;;;;0.20;0.20;;;;;;;20.46;53.30;98582.41;113637;1217;137656;-86
2021/08/22 02:18:03;;;;;;;0.20;0.20;;;;;;;20.44;53.86;98582.30;113598;1217;137523;-84
2021/08/22 02:20:30;;;;;;;0.20;0.20;;;;;;;20.41;54.03;98582.73;113673;1217;137404;-85
2021/08/22 02:22:56;;;;;;;0.20;0.20;;;;;;;20.39;54.17;98583.71;113514;1217;137971;-85
2021/08/22 02:25:22;;;;;;;0.20;0.20;;;;;;;20.36;54.33;98586.33;113742;1220;22474;-85
2021/08/22 02:27:48;;;;;;;0.10;0.10;;;;;;;20.33;54.64;98589.25;113607;1218;137128;-86
2021/08/22 02:30:14;;;;;;;0.10;0.10;;;;;;;20.29;54.63;98591.93;113692;1217;137359;-85
2021/08/22 02:32:40;;;;;;;0.20;0.20;;;;;;;20.25;54.66;98589.92;113630;1217;137393;-85
2021/08/22 02:35:07;;;;;;;0.20;0.20;;;;;;;20.22;54.66;98586.29;113608;1220;137657;-86
2021/08/22 02:37:33;;;;;;;0.10;0.10;;;;;;;20.19;54.75;98584.60;113765;1221;24121;-85
2021/08/22 02:39:59;;;;;;;0.20;0.20;;;;;;;20.16;54.96;98587.67;113609;1217;137127;-86
2021/08/22 02:42:25;;;;;;;0.20;0.20;;;;;;;20.12;55.29;98591.84;113501;1219;138202;-85
2021/08/22 02:44:50;;;;;;;0.10;0.10;;;;;;;20.09;55.36;98591.77;113653;1217;137453;-86
2021/08/22 02:47:16;;;;;;;0.20;0.20;;;;;;;20.05;55.21;98587.35;113682;1217;137620;-86
2021/08/22 02:49:42;;;;;;;0.20;0.20;;;;;;;20.01;55.22;98586.05;113745;1217;22457;-85
2021/08/22 02:52:09;;;;;;;0.20;0.20;;;;;;;19.98;55.18;98587.86;113650;1220;139106;-85
2021/08/22 02:54:34;;;;;;;0.20;0.20;;;;;;;19.94;55.29;98579.37;113654;1218;137771;-85
2021/08/22 02:57:00;;;;;;;0.20;0.20;;;;;;;19.90;55.26;98586.32;113675;1217;137476;-85
2021/08/22 02:59:26;;;;;;;0.10;0.10;;;;;;;19.86;55.45;98583.84;113654;1217;137603;-85
2021/08/22 03:01:51;;;;;;;0.20;0.20;;;;;;;19.83;57.86;98585.98;113672;1217;137636;-86
2021/08/22 03:04:16;;;;;;;0.10;0.10;;;;;;;19.79;57.83;98585.46;113803;1220;22474;-85
2021/08/22 03:06:42;;;;;;;0.10;0.10;;;;;;;19.76;57.30;98582.27;113709;1217;137590;-85
2021/08/22 03:09:08;;;;;;;0.10;0.10;;;;;;;19.73;56.85;98583.24;113651;1217;137459;-85
2021/08/22 03:11:33;;;;;;;0.20;0.20;;;;;;;19.69;56.62;98579.11;113634;1217;137584;-85
2021/08/22 03:13:59;;;;;;;0.10;0.10;;;;;;;19.65;56.33;98575.14;113624;1217;137557;-85
2021/08/22 03:16:26;;;;;;;0.10;0.10;;;;;;;19.61;56.31;98577.63;113758;1222;22474;-85
2021/08/22 03:18:51;;;;;;;0.10;0.10;;;;;;;19.57;56.24;98576.56;113593;1221;137375;-86
2021/08/22 03:21:17;;;;;;;0.10;0.10;;;;;;;19.54;56.26;98576.48;113658;1217;137746;-85
2021/08/22 03:23:42;;;;;;;0.10;0.10;;;;;;;19.51;56.37;98577.91;113787;1216;137322;-86
2021/08/22 03:26:09;;;;;;;0.20;0.20;;;;;;;19.48;56.54;98579.33;113678;1220;137659;-85
2021/08/22 03:28:36;;;;;;;0.20;0.20;;;;;;;19.44;56.65;98575.91;113770;1216;22448;-85
2021/08/22 03:31:03;;;;;;;0.20;0.20;;;;;;;19.41;56.66;98575.25;113688;1217;136924;-85
2021/08/22 03:33:28;;;;;;;0.10;0.10;;;;;;;19.37;56.68;98571.90;113679;1218;137411;-85
2021/08/22 03:35:54;;;;;;;0.20;0.20;;;;;;;19.33;56.81;98569.64;113657;1217;137606;-85
2021/08/22 03:38:19;;;;;;;0.10;0.10;;;;;;;19.29;57.01;98566.69;113658;1218;137495;-85
2021/08/22 03:40:46;;;;;;;0.10;0.10;;;;;;;19.25;57.12;98564.42;113658;1217;137506;-85
2021/08/22 03:43:11;;;;;;;0.10;0.10;;;;;;;19.22;57.37;98563.11;113786;1220;22454;-85
2021/08/22 03:45:36;;;;;;;0.10;0.10;;;;;;;19.19;57.58;98571.80;113694;1220;137306;-85
2021/08/22 03:48:03;;;;;;;0.20;0.20;;;;;;;19.18;57.63;98570.66;113671;1217;138031;-85
2021/08/22 03:50:29;;;;;;;0.20;0.20;;;;;;;19.20;57.96;98573.83;113682;1217;138288;-85
2021/08/22 03:52:55;;;;;;;0.20;0.20;;;;;;;19.22;58.22;98571.14;113662;1217;137895;-85
2021/08/22 03:55:21;;;;;;;0.20;0.20;;;;;;;19.25;58.26;98572.20;113755;1217;22457;-86
2021/08/22 03:57:47;;;;;;;0.20;0.20;;;;;;;19.27;58.39;98579.20;113646;1219;137358;-85
2021/08/22 04:00:13;;;;;;;0.10;0.10;;;;;;;19.29;58.45;98579.80;113664;1219;137548;-86
2021/08/22 04:02:38;;;;;;;0.20;0.20;;;;;;;19.29;58.38;98573.95;113648;1217;137425;-85
2021/08/22 04:05:07;;;;;;;0.10;0.10;;;;;;;19.30;58.51;98573.80;113641;1216;137506;-86
2021/08/22 04:07:34;;;;;;;0.20;0.20;;;;;;;19.29;58.64;98580.09;113821;1220;22439;-85
2021/08/22 04:09:59;;;;;;;0.10;0.10;;;;;;;19.28;58.54;98577.73;113667;1217;136975;-85
2021/08/22 04:12:25;;;;;;;0.10;0.10;;;;;;;19.26;58.59;98576.15;113657;1220;137438;-86
2021/08/22 04:14:50;;;;;;;0.10;0.10;;;;;;;19.25;58.55;98580.27;113646;1217;137386;-85
2021/08/22 04:17:16;;;;;;;0.20;0.20;;;;;;;19.25;58.75;98575.72;113722;1217;137938;-85
2021/08/22 04:19:42;;;;;;;0.10;0.10;;;;;;;19.24;58.82;98582.09;113798;1220;22483;-85
2021/08/22 04:22:08;;;;;;;0.10;0.10;;;;;;;19.23;59.00;98581.77;113639;1217;137079;-85
2021/08/22 04:24:35;;;;;;;0.10;0.10;;;;;;;19.22;59.15;98584.04;113654;1217;137361;-85
2021/08/22 04:27:03;;;;;;;0.10;0.10;;;;;;;19.21;59.30;98584.00;113640;1217;137666;-85
2021/08/22 04:29:29;;;;;;;0.10;0.10;;;;;;;19.19;59.45;98583.50;113706;1220;137484;-85
2021/08/22 04:31:55;;;;;;;0.10;0.10;;;;;;;19.18;59.53;98582.69;113450;1218;137941;-86
2021/08/22 04:34:21;;;;;;;0.10;0.10;;;;;;;19.17;59.73;98583.13;113761;1222;22465;-85
2021/08/22 04:36:47;;;;;;;0.20;0.20;;;;;;;19.16;59.92;98583.52;113686;1217;137423;-85
2021/08/22 04:39:15;;;;;;;0.20;0.20;;;;;;;19.17;59.95;98586.89;113674;1217;137762;-85
2021/08/22 04:41:46;;;;;;;0.10;0.10;;;;;;;19.19;60.26;98584.83;113705;1217;138218;-85
2021/08/22 04:44:13;;;;;;;0.30;0.30;;;;;;;19.23;60.60;98584.11;113655;1217;137776;-85
2021/08/22 04:46:39;;;;;;;0.20;0.20;;;;;;;19.27;60.76;98578.64;113746;1220;22455;-86
2021/08/22 04:49:05;;;;;;;0.20;0.20;;;;;;;19.31;60.79;98581.91;113639;1223;136974;-85
2021/08/22 04:51:30;;;;;;;0.20;0.20;;;;;;;19.35;60.77;98581.23;113654;1220;137447;-86
2021/08/22 04:53:56;;;;;;;0.10;0.10;;;;;;;19.40;60.66;98579.42;113654;1217;137438;-85
2021/08/22 04:56:23;;;;;;;0.20;0.20;;;;;;;19.44;60.72;98578.63;113661;1220;137704;-85
2021/08/22 04:58:49;;;;;;;0.20;0.20;;;;;;;19.47;60.86;98578.54;113615;1219;137956;-85
2021/08/22 05:01:15;;;;;;;0.10;0.10;;;;;;;19.50;60.85;98579.16;113920;1214;22458;-86
2021/08/22 05:03:41;;;;;;;0.10;0.10;;;;;;;19.52;60.91;98577.48;113662;1220;136174;-86
2021/08/22 05:06:09;;;;;;;0.10;0.10;;;;;;;19.55;60.98;98579.23;113676;1217;137683;-86
2021/08/22 05:08:34;;;;;;;0.20;0.20;;;;;;;19.57;60.61;98581.61;113658;1220;137416;-86
2021/08/22 05:11:00;;;;;;;0.20;0.20;;;;;;;19.59;60.91;98580.72;113800;1218;138136;-84
2021/08/22 05:13:25;;;;;;;0.20;0.20;;;;;;;19.63;60.53;98583.30;113763;1222;22450;-85
2021/08/22 05:15:53;;;;;;;0.20;0.20;;;;;;;19.68;60.46;98582.13;113716;1218;137503;-85
2021/08/22 05:18:23;;;;;;;0.20;0.20;;;;;;;19.71;60.51;98585.39;113672;1217;137710;-85
2021/08/22 05:20:49;;;;;;;0.20;0.20;;;;;;;19.74;60.09;98581.07;113642;1218;137534;-85
2021/08/22 05:23:16;;;;;;;0.10;0.10;;;;;;;19.78;59.52;98584.96;113651;1217;137485;-85
2021/08/22 05:25:41;;;;;;;0.30;0.30;;;;;;;19.79;60.24;98588.73;113743;1227;25574;-85
2021/08/22 05:28:07;;;;;;;0.20;0.20;;;;;;;19.83;60.46;98589.96;113695;1217;137123;-85
2021/08/22 05:30:33;;;;;;;0.10;0.10;;;;;;;19.89;60.49;98594.98;113676;1218;138105;-85
2021/08/22 05:32:58;;;;;;;0.20;0.20;;;;;;;19.98;60.31;98592.77;113523;1220;138148;-85
2021/08/22 05:35:24;;;;;;;0.40;0.40;;;;;;;20.08;60.41;98596.00;113828;1219;137130;-85
2021/08/22 05:37:49;;;;;;;0.40;0.40;;;;;;;20.20;60.61;98592.66;113660;1217;137947;-85
2021/08/22 05:40:15;;;;;;;0.20;0.20;;;;;;;20.32;60.54;98593.06;113810;1220;22460;-85
2021/08/22 05:42:40;;;;;;;0.20;0.20;;;;;;;20.42;59.87;98588.99;113678;1217;139430;-85
2021/08/22 05:45:06;;;;;;;0.10;0.10;;;;;;;20.53;59.86;98591.42;113763;1217;137430;-85
2021/08/22 05:47:32;;;;;;;0.20;0.20;;;;;;;20.63;59.95;98593.45;113707;1216;137292;-85
2021/08/22 05:49:57;;;;;;;0.10;0.10;;;;;;;20.74;59.97;98597.27;113680;1218;137824;-85
2021/08/22 05:52:23;;;;;;;0.30;0.30;;;;;;;20.83;59.92;98596.69;113833;1219;23111;-85
2021/08/22 05:54:49;;;;;;;0.20;0.20;;;;;;;20.92;59.88;98598.67;113609;1217;137321;-85
2021/08/22 05:57:14;;;;;;;0.20;0.20;;;;;;;21.01;59.81;98596.28;113631;1214;137274;-85
2021/08/22 05:59:40;;;;;;;0.20;0.20;;;;;;;21.09;59.05;98594.81;113667;1217;137345;-85
2021/08/22 06:02:05;;;;;;;0.20;0.20;;;;;;;21.18;58.87;98593.41;113661;1218;137526;-85
2021/08/22 06:04:31;;;;;;;0.20;0.20;;;;;;;21.25;58.66;98594.52;113781;1220;22477;-85
2021/08/22 06:06:57;;;;;;;0.10;0.10;;;;;;;21.34;58.63;98596.98;113627;1218;137470;-85
2021/08/22 06:09:25;;;;;;;0.20;0.20;;;;;;;21.43;58.32;98596.21;113779;1218;137354;-85
2021/08/22 06:11:51;;;;;;;0.30;0.30;;;;;;;21.50;58.09;98599.73;113644;1223;137454;-85
2021/08/22 06:14:16;;;;;;;0.10;0.10;;;;;;;21.59;57.78;98600.98;113665;1218;138288;-85
2021/08/22 06:16:42;;;;;;;0.20;0.20;;;;;;;21.67;57.26;98599.11;113784;1221;25153;-85
2021/08/22 06:19:08;;;;;;;0.20;0.20;;;;;;;21.76;57.40;98604.29;113701;1217;153583;-85
2021/08/22 06:21:36;;;;;;;0.30;0.30;;;;;;;21.87;57.54;98602.58;113708;1217;137398;-85
2021/08/22 06:24:02;;;;;;;0.20;0.20;;;;;;;21.99;57.56;98602.44;113492;1218;137420;-85
2021/08/22 06:26:28;;;;;;;0.20;0.20;;;;;;;22.10;57.46;98601.44;113496;1221;137554;-85
2021/08/22 06:28:53;;;;;;;0.20;0.20;;;;;;;22.22;56.90;98600.14;113499;1221;137635;-85
2021/08/22 06:31:19;;;;;;;0.20;0.20;;;;;;;22.34;56.64;98599.98;113827;1221;22487;-85
2021/08/22 06:33:45;;;;;;;0.20;0.20;;;;;;;22.44;56.32;98600.13;113679;1217;137443;-85
2021/08/22 06:36:12;;;;;;;0.20;0.20;;;;;;;22.57;56.15;98600.21;113803;1217;137459;-85
2021/08/22 06:38:38;;;;;;;0.20;0.20;;;;;;;22.69;55.98;98604.19;113683;1218;137528;-85
2021/08/22 06:41:03;;;;;;;0.30;0.30;;;;;;;22.76;56.16;98607.91;113721;1218;137478;-85
2021/08/22 06:43:29;;;;;;;0.20;0.20;;;;;;;22.87;55.74;98606.94;113815;1221;22449;-85
2021/08/22 06:45:54;;;;;;;0.20;0.20;;;;;;;22.92;55.56;98606.69;113787;1217;137148;-85
2021/08/22 06:48:20;;;;;;;0.30;0.30;;;;;;;22.97;55.42;98603.24;113627;1222;137490;-85
2021/08/22 06:50:47;;;;;;;0.10;0.10;;;;;;;23.00;55.59;98601.54;113809;1217;137282;-86
2021/08/22 06:53:13;;;;;;;0.20;0.20;;;;;;;23.06;55.09;98601.25;113586;1218;137615;-85
2021/08/22 06:55:41;;;;;;;0.30;0.30;;;;;;;23.16;54.22;98601.67;113817;1221;22452;-85
2021/08/22 06:58:06;;;;;;;0.20;0.20;;;;;;;23.29;54.28;98601.70;113765;1217;136933;-86
2021/08/22 07:00:33;;;;;;;0.20;0.20;;;;;;;23.43;54.12;98598.92;113721;1217;137460;-86
2021/08/22 07:02:59;;;;;;;0.20;0.20;;;;;;;23.55;53.89;98598.32;113666;1217;137449;-85
2021/08/22 07:05:24;;;;;;;0.30;0.30;;;;;;;23.67;53.86;98601.09;113838;1222;137558;-85
2021/08/22 07:07:51;;;;;;;0.20;0.20;;;;;;;23.77;53.45;98601.05;113673;1221;137936;-85
2021/08/22 07:10:16;;;;;;;0.30;0.30;;;;;;;23.82;53.98;98600.18;113776;1225;22480;-85
2021/08/22 07:12:42;;;;;;;0.30;0.30;;;;;;;23.89;53.68;98607.96;113594;1221;137187;-85
2021/08/22 07:15:08;;;;;;;0.20;0.20;;;;;;;23.94;53.25;98607.41;113623;1215;137335;-85
2021/08/22 07:17:33;;;;;;;0.30;0.30;;;;;;;23.98;53.52;98599.86;113613;1218;137556;-85
2021/08/22 07:19:59;;;;;;;0.20;0.20;;;;;;;24.01;53.18;98598.61;113622;1217;137534;-86
2021/08/22 07:22:24;;;;;;;0.20;0.20;;;;;;;24.06;53.02;98594.91;113749;1224;25079;-85
2021/08/22 07:24:50;;;;;;;0.20;0.20;;;;;;;24.10;52.99;98598.22;113590;1217;137232;-85
2021/08/22 07:27:15;;;;;;;0.30;0.30;;;;;;;24.17;52.90;98606.07;113664;1218;137453;-85
2021/08/22 07:29:42;;;;;;;0.30;0.30;;;;;;;24.23;52.52;98606.45;113664;1217;137495;-85
2021/08/22 07:32:07;;;;;;;0.20;0.20;;;;;;;24.31;52.59;98603.38;113642;1218;137675;-86
2021/08/22 07:34:33;;;;;;;0.30;0.30;;;;;;;24.38;52.58;98605.04;113795;1220;22475;-85
2021/08/22 07:36:58;;;;;;;0.20;0.20;;;;;;;24.44;52.26;98603.70;113583;1220;137394;-85
2021/08/22 07:39:24;;;;;;;0.30;0.30;;;;;;;24.51;52.18;98604.48;113718;1217;137507;-85
2021/08/22 07:41:49;;;;;;;0.30;0.30;;;;;;;24.57;51.91;98612.09;113684;1217;137434;-85
2021/08/22 07:44:15;;;;;;;0.20;0.20;;;;;;;24.64;51.97;98611.52;113599;1218;137642;-85
2021/08/22 07:46:40;;;;;;;0.20;0.20;;;;;;;24.71;51.81;98613.08;113726;1221;22487;-85
2021/08/22 07:49:06;;;;;;;0.30;0.30;;;;;;;24.78;51.37;98616.83;113621;1217;137027;-85
2021/08/22 07:51:31;;;;;;;0.30;0.30;;;;;;;24.83;51.34;98618.40;113637;1217;137386;-85
2021/08/22 07:53:57;;;;;;;0.20;0.20;;;;;;;24.91;51.04;98619.15;113639;1217;137331;-85
2021/08/22 07:56:22;;;;;;;0.20;0.20;;;;;;;24.97;50.08;98619.52;113626;1218;137728;-85
2021/08/22 07:58:48;;;;;;;0.30;0.30;;;;;;;25.02;50.03;98618.71;113649;1218;137640;-86
2021/08/22 08:01:13;;;;;;;0.30;0.30;;;;;;;25.12;49.65;98613.66;113772;1225;22447;-85
2021/08/22 08:03:39;;;;;;;0.30;0.30;;;;;;;25.18;49.01;98615.77;113627;1222;137094;-85
2021/08/22 08:06:04;;;;;;;0.30;0.30;;;;;;;25.23;49.40;98617.63;113697;1217;137509;-85
2021/08/22 08:08:30;;;;;;;0.30;0.30;;;;;;;25.37;49.94;98618.50;113564;1219;137572;-85
2021/08/22 08:10:55;;;;;;;0.40;0.40;;;;;;;25.48;49.38;98615.77;113621;1222;137527;-85
2021/08/22 08:13:20;;;;;;;0.20;0.20;;;;;;;25.52;49.01;98615.17;113722;1225;23156;-85
2021/08/22 08:15:46;;;;;;;0.30;0.30;;;;;;;25.60;49.11;98614.58;113689;1217;137272;-85
2021/08/22 08:18:12;;;;;;;0.30;0.30;;;;;;;25.73;49.01;98616.14;113628;1217;137437;-85
2021/08/22 08:20:37;;;;;;;0.40;0.40;;;;;;;25.86;48.38;98611.04;113664;1217;137300;-85
2021/08/22 08:23:04;;;;;;;0.40;0.40;;;;;;;25.99;48.88;98610.54;113532;1217;137539;-84
2021/08/22 08:25:29;;;;;;;0.30;0.30;;;;;;;26.11;47.86;98611.07;113744;1224;22479;-84
2021/08/22 08:27:55;;;;;;;0.30;0.30;;;;;;;26.23;47.54;98612.38;113625;1218;138112;-85
2021/08/22 08:30:21;;;;;;;0.30;0.30;;;;;;;26.36;47.03;98614.55;113465;1219;137356;-84
2021/08/22 08:32:46;;;;;;;0.30;0.30;;;;;;;26.48;46.77;98614.08;113636;1215;137545;-84
2021/08/22 08:35:12;;;;;;;0.30;0.30;;;;;;;26.59;45.29;98614.52;113687;1218;137644;-85
2021/08/22 08:37:42;;;;;;;0.30;0.30;;;;;;;26.71;44.79;98616.04;113725;1222;22530;-86
2021/08/22 08:40:18;;;;;;;0.30;0.30;;;;;;;26.87;43.91;98616.71;113677;1222;22508;-85
2021/08/22 08:42:46;;;;;;;0.20;0.20;;;;;;;26.98;44.13;98619.13;113575;1217;137415;-85
2021/08/22 08:45:17;;;;;;;0.40;0.40;;;;;;;27.10;44.11;98617.73;113583;1217;137435;-85
2021/08/22 08:47:46;;;;;;;0.30;0.30;;;;;;;27.24;43.39;98616.77;113709;1217;137308;-85
2021/08/22 08:50:54;;;;;;;0.40;0.40;;;;;;;27.34;41.52;98612.05;113642;1217;138090;-85
2021/08/22 08:53:23;;;;;;;0.30;0.30;;;;;;;27.43;39.45;98615.33;113048;1221;137547;-85
2021/08/22 08:55:52;;;;;;;0.40;0.40;;;;;;;27.51;39.43;98615.30;113075;1221;137572;-85
2021/08/22 08:58:17;;;;;;;0.50;0.50;;;;;;;27.54;38.66;98613.20;113469;1227;22462;-85
2021/08/22 09:00:45;;;;;;;0.40;0.40;;;;;;;27.56;38.33;98614.57;113570;1217;137509;-85
2021/08/22 09:03:14;;;;;;;0.40;0.40;;;;;;;27.60;37.48;98616.41;113657;1214;137362;-85
2021/08/22 09:05:45;;;;;;;0.40;0.40;;;;;;;27.59;37.00;98614.62;113691;1218;137394;-86
2021/08/22 09:08:43;;;;;;;0.20;0.20;;;;;;;27.58;36.81;98614.40;113709;1217;137515;-85
2021/08/22 09:11:54;;;;;;;0.30;0.30;;;;;;;27.53;37.19;98613.85;113678;1222;137479;-86
2021/08/22 09:14:41;;;;;;;0.30;0.30;;;;;;;27.58;38.02;98614.09;113452;1217;137558;-86
2021/08/22 09:17:45;;;;;;;0.30;0.30;;;;;;;27.68;38.36;98616.23;113678;1216;137603;-86
2021/08/22 09:20:47;;;;;;;0.30;0.30;;;;;;;27.81;38.23;98617.63;113676;1218;137548;-86
2021/08/22 09:23:51;;;;;;;0.30;0.30;;;;;;;27.89;37.40;98618.92;113733;1217;137446;-86
2021/08/22 09:26:56;;;;;;;0.40;0.40;;;;;;;27.89;36.37;98620.73;113751;1217;137522;-86
2021/08/22 09:29:59;;;;;;;0.30;0.30;;;;;;;27.94;35.92;98616.33;113327;1217;137870;-86
2021/08/22 09:33:03;;;;;;;0.20;0.20;;;;;;;28.08;36.46;98616.02;113759;1217;137549;-86
2021/08/22 09:36:07;;;;;;;0.50;0.50;;;;;;;28.18;35.60;98608.34;113811;1214;137603;-85
2021/08/22 09:38:52;;;;;;;0.40;0.40;;;;;;;28.37;35.94;98609.61;113808;1217;137547;-85
2021/08/22 09:41:54;;;;;;;0.40;0.40;;;;;;;28.53;35.93;98612.95;113763;1218;137449;-85
2021/08/22 09:44:57;;;;;;;0.40;0.40;;;;;;;28.77;34.64;98611.95;113760;1217;137648;-84
2021/08/22 09:47:54;;;;;;;0.40;0.40;;;;;;;29.02;34.78;98608.06;113833;1218;137856;-84
2021/08/22 09:50:55;;;;;;;0.40;0.40;;;;;;;29.30;34.97;98608.37;113778;1218;137624;-85
2021/08/22 09:54:06;;;;;;;0.40;0.40;;;;;;;29.51;34.22;98609.00;113188;1221;137922;-85
2021/08/22 09:57:09;;;;;;;0.40;0.40;;;;;;;29.56;34.08;98608.25;113621;1217;137752;-85
2021/08/22 10:00:03;;;;;;;0.30;0.30;;;;;;;29.47;33.42;98611.23;113763;1215;137476;-85
2021/08/22 10:02:47;;;;;;;0.40;0.40;;;;;;;29.49;33.19;98612.87;113800;1216;137303;-85
2021/08/22 10:05:29;;;;;;;0.40;0.40;;;;;;;29.56;33.89;98608.56;113745;1217;137511;-85
2021/08/22 10:08:00;;;;;;;0.30;0.30;;;;;;;29.70;33.71;98604.39;113708;1216;137516;-85
2021/08/22 10:10:29;;;;;;;0.40;0.40;;;;;;;29.68;33.57;98599.68;113912;1219;22490;-86
2021/08/22 10:12:54;;;;;;;0.40;0.40;;;;;;;29.64;33.25;98601.67;113752;1214;137230;-85
2021/08/22 10:15:21;;;;;;;0.50;0.50;;;;;;;29.66;33.38;98596.86;113690;1217;137415;-86
2021/08/22 10:17:50;;;;;;;0.40;0.40;;;;;;;29.59;33.22;98597.97;113722;1223;137507;-86
2021/08/22 10:20:17;;;;;;;0.50;0.50;;;;;;;29.47;33.18;98599.27;113688;1214;137571;-86
2021/08/22 10:22:43;;;;;;;0.50;0.50;;;;;;;29.47;33.90;98593.40;113801;1221;22501;-86
2021/08/22 10:25:18;;;;;;;0.40;0.40;;;;;;;29.56;33.66;98592.48;113743;1222;22612;-86
2021/08/22 10:27:59;;;;;;;0.50;0.50;;;;;;;29.52;33.46;98592.70;113670;1217;137301;-85
2021/08/22 10:30:27;;;;;;;0.40;0.40;;;;;;;29.59;33.95;98588.38;113559;1217;137537;-86
2021/08/22 10:32:59;;;;;;;0.40;0.40;;;;;;;29.73;33.50;98589.50;113706;1218;137304;-86
2021/08/22 10:35:26;;;;;;;0.50;0.50;;;;;;;29.83;33.48;98591.41;113724;1218;137518;-86
2021/08/22 10:37:52;;;;;;;0.50;0.50;;;;;;;29.86;33.06;98590.42;113737;1217;137497;-86
2021/08/22 10:40:23;;;;;;;0.60;0.60;;;;;;;29.88;33.26;98590.27;113670;1225;22476;-86
2021/08/22 10:42:49;;;;;;;0.50;0.50;;;;;;;29.81;32.53;98586.19;113719;1218;137129;-86
2021/08/22 10:45:40;;;;;;;0.40;0.40;;;;;;;29.79;32.94;98582.51;113631;1217;137574;-86
2021/08/22 10:48:10;;;;;;;0.50;0.50;;;;;;;29.89;33.28;98585.71;113721;1218;137338;-86
2021/08/22 10:51:08;;;;;;;0.50;0.50;;;;;;;29.98;33.43;98581.41;113525;1218;137684;-85
2021/08/22 10:53:35;;;;;;;0.50;0.50;;;;;;;29.99;33.21;98580.77;113716;1217;137347;-86
2021/08/22 10:56:29;;;;;;;0.50;0.50;;;;;;;30.18;32.66;98578.80;113744;1221;137923;-85
2021/08/22 10:59:02;;;;;;;0.50;0.50;;;;;;;30.30;32.96;98573.10;113707;1217;137900;-86
2021/08/22 11:01:36;;;;;;;0.40;0.40;;;;;;;30.46;33.02;98571.73;113826;1225;22466;-86
2021/08/22 11:04:11;;;;;;;0.40;0.40;;;;;;;30.63;32.78;98570.20;113631;1217;136935;-86
2021/08/22 11:06:51;;;;;;;0.50;0.50;;;;;;;30.76;32.95;98564.69;113748;1214;137516;-86
2021/08/22 11:09:35;;;;;;;0.40;0.40;;;;;;;31.00;32.53;98561.79;113768;1215;137427;-86
2021/08/22 11:12:01;;;;;;;0.50;0.50;;;;;;;31.12;32.40;98555.73;113743;1217;137588;-86
2021/08/22 11:14:26;;;;;;;0.50;0.50;;;;;;;31.21;32.49;98560.60;113718;1216;137487;-85
2021/08/22 11:16:52;;;;;;;0.50;0.50;;;;;;;31.37;32.19;98560.15;113532;1216;137573;-85
2021/08/22 11:19:22;;;;;;;0.50;0.50;;;;;;;31.52;31.63;98558.14;113849;1224;22455;-84
2021/08/22 11:21:48;;;;;;;0.50;0.50;;;;;;;31.68;31.40;98556.00;113564;1218;137398;-85
2021/08/22 11:24:13;;;;;;;0.50;0.50;;;;;;;31.77;31.09;98563.39;113603;1217;137435;-84
2021/08/22 11:26:39;;;;;;;0.30;0.30;;;;;;;31.85;30.65;98560.93;113530;1218;137609;-85
2021/08/22 11:29:05;;;;;;;0.40;0.40;;;;;;;31.94;30.43;98559.20;113716;1218;137496;-85
2021/08/22 11:31:32;;;;;;;0.60;0.60;;;;;;;32.10;31.13;98552.14;113850;1221;22456;-86